Time;durP1;ratioP1;P1;durP2;ratioP2;P2;SDS_P1;SDS_P2;PMS_P1;PMS_P2;Temp;Humidity;BMP_temperature;BMP_pressure;BME280_temperature;BME280_humidity;BME280_pressure;Samples;Min_cycle;Max_cycle;Signal;HPM_P1;HPM_P2
2023/03/29 04:15:09;;;;;;;1.80;1.20;;;;;;;-4.18;74.10;98386.89;103966;1276;616606;-24
2023/03/29 04:17:41;;;;;;;;;;;;;;;-3.35;71.89;98407.91;105171;1264;61135;-24
2023/03/29 04:20:23;;;;;;;1.20;1.00;;;;;;;-3.06;70.04;98400.95;104855;1267;61080;-25
2023/03/29 04:22:55;;;;;;;2.30;1.40;;;;;;;-3.07;70.19;98400.46;105205;1269;73716;-25
2023/03/29 04:25:24;;;;;;;2.20;1.20;;;;;;;-3.21;70.56;98408.61;105248;1269;75840;-25
2023/03/29 04:28:30;;;;;;;1.50;1.00;;;;;;;-3.36;71.22;98407.94;102936;1272;2188060;-24
2023/03/29 04:31:13;;;;;;;5.30;1.40;;;;;;;-3.51;71.68;98403.70;104491;1269;61268;-24
2023/03/29 04:40:25;;;;;;;3.40;1.60;;;;;;;-2.97;70.21;98403.68;102682;1290;599933;-24
2023/03/29 04:43:06;;;;;;;1.50;1.10;;;;;;;-3.05;70.78;98419.09;105119;1265;61137;-25
2023/03/29 04:45:37;;;;;;;1.40;0.90;;;;;;;-3.08;71.01;98408.66;105141;1269;62163;-25
2023/03/29 04:48:12;;;;;;;1.70;1.30;;;;;;;-3.27;71.63;98417.66;105143;1269;73633;-25
2023/03/29 04:50:47;;;;;;;4.20;1.30;;;;;;;-3.35;72.52;98415.39;105132;1269;73840;-25
2023/03/29 04:53:16;;;;;;;4.10;1.30;;;;;;;-3.46;72.87;98412.19;103262;1266;2026183;-25
2023/03/29 04:55:46;;;;;;;0.80;0.80;;;;;;;-3.24;71.86;98409.75;105189;1267;61071;-25
2023/03/29 04:58:21;;;;;;;1.20;1.00;;;;;;;-2.82;70.98;98424.19;104881;1269;61894;-25
2023/03/29 05:00:57;;;;;;;3.00;1.00;;;;;;;-2.93;70.79;98416.77;105229;1266;73675;-25
2023/03/29 05:03:44;;;;;;;1.40;1.10;;;;;;;-3.01;71.35;98422.33;104935;1264;75816;-25
2023/03/29 05:06:18;;;;;;;1.70;1.10;;;;;;;-3.08;72.15;98430.05;105098;1263;73048;-25
2023/03/29 05:08:47;;;;;;;2.00;1.10;;;;;;;-3.17;72.60;98432.75;105225;1264;61052;-25
2023/03/29 05:11:26;;;;;;;1.20;1.10;;;;;;;-3.21;72.91;98430.35;105228;1264;61831;-25
2023/03/29 05:13:59;;;;;;;1.20;1.00;;;;;;;-3.05;72.69;98426.55;105194;1263;73505;-25
2023/03/29 05:16:29;;;;;;;1.80;1.00;;;;;;;-2.58;71.28;98420.27;105115;1263;73882;-26
2023/03/29 05:18:58;;;;;;;1.90;1.40;;;;;;;-2.69;71.45;98437.48;105227;1264;74026;-26
2023/03/29 05:21:29;;;;;;;1.50;1.20;;;;;;;-2.82;72.11;98441.37;105075;1263;61058;-25
2023/03/29 05:23:59;;;;;;;0.70;0.70;;;;;;;-2.86;72.54;98447.11;105209;1267;61792;-25
2023/03/29 05:26:51;;;;;;;2.50;1.50;;;;;;;-2.99;73.19;98442.65;105216;1264;74505;-25
2023/03/29 05:29:22;;;;;;;4.40;1.30;;;;;;;-3.10;73.53;98441.66;105217;1264;75781;-24
2023/03/29 05:31:58;;;;;;;1.30;1.00;;;;;;;-3.11;73.96;98440.20;105176;1263;73015;-25
2023/03/29 05:34:28;;;;;;;1.60;1.30;;;;;;;-2.65;73.38;98439.90;104859;1263;61077;-24
2023/03/29 05:37:00;;;;;;;1.60;1.40;;;;;;;-2.55;71.50;98433.23;105209;1267;61172;-25
2023/03/29 05:39:32;;;;;;;1.90;1.60;;;;;;;-2.42;72.23;98439.55;104877;1263;74594;-25
2023/03/29 05:42:05;;;;;;;1.70;1.20;;;;;;;-2.60;72.25;98441.05;104913;1264;75690;-25
2023/03/29 05:44:45;;;;;;;1.00;0.90;;;;;;;-2.84;73.00;98418.17;104983;1264;73033;-25
2023/03/29 05:47:18;;;;;;;2.00;1.20;;;;;;;-2.86;73.61;98434.70;105202;1267;61109;-25
2023/03/29 05:49:46;;;;;;;2.40;1.20;;;;;;;-2.96;74.57;98437.45;105138;1266;61611;-24
2023/03/29 05:52:22;;;;;;;1.70;1.20;;;;;;;-2.64;73.93;98438.67;105076;1263;74430;-24
2023/03/29 05:54:51;;;;;;;1.50;1.30;;;;;;;-2.43;72.36;98439.43;105168;1264;74852;-25
2023/03/29 05:57:20;;;;;;;4.50;1.60;;;;;;;-2.45;72.59;98440.67;105187;1263;73222;-25
2023/03/29 05:59:49;;;;;;;1.40;1.10;;;;;;;-2.50;72.87;98438.29;105022;1263;61182;-25
2023/03/29 06:02:18;;;;;;;1.90;1.40;;;;;;;-2.55;73.42;98444.62;105038;1264;61049;-24
2023/03/29 06:04:51;;;;;;;1.40;1.20;;;;;;;-2.71;73.30;98446.23;105147;1266;74719;-24
2023/03/29 06:07:37;;;;;;;2.20;1.20;;;;;;;-2.90;74.08;98435.70;105113;1267;75838;-25
2023/03/29 06:10:25;;;;;;;1.40;0.90;;;;;;;-2.88;74.27;98432.73;105095;1268;74392;-24
2023/03/29 06:12:59;;;;;;;1.40;0.90;;;;;;;-2.43;73.16;98441.95;105123;1270;61323;-24
2023/03/29 06:15:30;;;;;;;3.60;1.30;;;;;;;-2.31;71.87;98433.02;105235;1264;61209;-25
2023/03/29 06:18:04;;;;;;;1.50;1.30;;;;;;;-2.40;71.96;98443.05;105214;1264;74446;-24
2023/03/29 06:20:36;;;;;;;3.00;1.40;;;;;;;-2.57;72.12;98438.39;105068;1264;75516;-25
2023/03/29 06:23:10;;;;;;;1.90;1.40;;;;;;;-2.73;72.99;98425.90;104839;1270;72106;-24
2023/03/29 06:25:39;;;;;;;3.10;1.40;;;;;;;-2.77;73.72;98442.19;105065;1267;61264;-25
2023/03/29 06:28:08;;;;;;;2.10;1.70;;;;;;;-2.74;73.95;98451.29;105116;1263;62636;-24
2023/03/29 06:30:38;;;;;;;3.70;1.80;;;;;;;-2.57;73.93;98449.13;105192;1263;74980;-24
2023/03/29 06:33:08;;;;;;;1.90;1.20;;;;;;;-2.38;73.15;98449.77;104828;1270;76318;-25
2023/03/29 06:35:48;;;;;;;2.80;1.70;;;;;;;-2.22;72.43;98451.70;104846;1264;74203;-24
2023/03/29 06:38:25;;;;;;;2.50;1.60;;;;;;;-2.32;73.41;98475.90;104806;1263;61094;-24
2023/03/29 06:41:27;;;;;;;3.00;1.40;;;;;;;-2.36;73.24;98460.56;104743;1267;61910;-24
2023/03/29 06:44:09;;;;;;;1.80;1.40;;;;;;;-2.64;73.73;98467.88;105593;1259;74537;-25
2023/03/29 06:46:48;;;;;;;1.70;1.30;;;;;;;-2.58;74.82;98479.06;105392;1261;75889;-24
2023/03/29 06:49:17;;;;;;;2.60;1.50;;;;;;;-2.28;74.51;98485.60;105471;1257;74162;-25
2023/03/29 06:51:58;;;;;;;2.00;1.30;;;;;;;-1.94;72.94;98484.49;105483;1257;61071;-25
2023/03/29 06:54:27;;;;;;;2.30;1.30;;;;;;;-1.92;72.58;98489.16;105547;1257;61172;-25
2023/03/29 06:57:06;;;;;;;1.50;1.40;;;;;;;-2.18;72.84;98493.54;105654;1259;74559;-24
2023/03/29 06:59:37;;;;;;;2.10;1.40;;;;;;;-2.30;72.92;98500.30;105565;1261;75792;-25
2023/03/29 07:02:19;;;;;;;1.70;1.40;;;;;;;-2.63;73.72;98492.16;105267;1256;74208;-24
2023/03/29 07:05:00;;;;;;;2.10;1.20;;;;;;;-2.55;74.37;98512.11;105630;1256;61079;-25
2023/03/29 07:07:52;;;;;;;;;;;;;;;-2.39;73.96;98509.64;105655;1259;61576;-25
2023/03/29 07:10:38;;;;;;;1.60;1.40;;;;;;;-2.00;72.21;98513.14;105606;1260;74668;-25
2023/03/29 07:13:29;;;;;;;2.30;1.40;;;;;;;-1.82;72.00;98508.36;105580;1258;75865;-25
2023/03/29 07:15:58;;;;;;;2.10;1.50;;;;;;;-1.95;71.84;98512.41;105534;1256;74234;-24
2023/03/29 07:18:53;;;;;;;4.10;1.60;;;;;;;-2.17;72.23;98505.09;105397;1259;61145;-25
2023/03/29 07:21:41;;;;;;;2.60;1.70;;;;;;;-2.16;73.07;98528.70;105603;1259;61729;-24
2023/03/29 07:24:11;;;;;;;1.60;1.40;;;;;;;-2.19;72.47;98515.35;105466;1259;74518;-25
2023/03/29 07:26:42;;;;;;;2.60;1.50;;;;;;;-2.48;72.06;98506.91;105540;1256;75496;-25
2023/03/29 07:29:28;;;;;;;1.50;1.10;;;;;;;-2.43;73.72;98536.33;105625;1256;74217;-24
2023/03/29 07:31:57;;;;;;;1.40;1.20;;;;;;;-2.02;72.04;98529.52;105627;1256;61192;-25
2023/03/29 07:34:48;;;;;;;2.50;1.50;;;;;;;-1.78;69.62;98524.37;105626;1259;61898;-25
2023/03/29 07:37:24;;;;;;;2.20;1.40;;;;;;;-1.88;69.85;98543.13;105590;1257;74626;-25
2023/03/29 07:39:52;;;;;;;1.80;1.50;;;;;;;-1.75;70.23;98539.75;105605;1256;75817;-25
2023/03/29 07:42:38;;;;;;;3.10;1.40;;;;;;;-1.93;70.91;98543.11;105643;1256;74231;-24
2023/03/29 07:45:09;;;;;;;2.80;1.70;;;;;;;-2.08;71.63;98540.62;105629;1260;61065;-24
2023/03/29 07:47:47;;;;;;;1.60;1.10;;;;;;;-2.09;71.71;98542.71;105287;1258;61688;-24
2023/03/29 07:50:17;;;;;;;2.60;1.50;;;;;;;-2.16;71.46;98547.08;105317;1256;73338;-24
2023/03/29 07:52:48;;;;;;;1.40;1.30;;;;;;;-2.07;72.26;98559.48;105591;1257;74602;-24
2023/03/29 07:55:16;;;;;;;2.00;1.30;;;;;;;-1.89;70.96;98548.94;105576;1260;73967;-25
2023/03/29 07:58:08;;;;;;;5.40;1.40;;;;;;;-1.40;69.86;98549.59;105463;1259;61735;-25
2023/03/29 08:00:37;;;;;;;2.50;1.50;;;;;;;-1.34;68.89;98560.08;105646;1259;61828;-25
2023/03/29 08:03:38;;;;;;;1.90;1.40;;;;;;;-1.52;68.85;98547.52;105686;1256;74326;-25
2023/03/29 08:06:07;;;;;;;2.10;1.40;;;;;;;-1.70;68.13;98563.36;105593;1256;75874;-24
2023/03/29 08:08:37;;;;;;;1.90;1.20;;;;;;;-1.64;68.38;98552.58;105677;1257;74141;-24
2023/03/29 08:11:11;;;;;;;2.20;1.40;;;;;;;-1.70;68.86;98554.50;105649;1256;61053;-24
2023/03/29 08:14:11;;;;;;;2.20;1.40;;;;;;;-1.88;69.04;98569.84;105547;1260;62036;-24
2023/03/29 08:16:56;;;;;;;1.50;1.30;;;;;;;-1.84;69.71;98583.98;105427;1256;73988;-25
2023/03/29 08:19:26;;;;;;;1.40;1.10;;;;;;;-1.64;70.42;98589.33;105470;1257;75671;-25
2023/03/29 08:22:04;;;;;;;2.10;1.10;;;;;;;-1.74;69.38;98587.18;105625;1257;73988;-25
2023/03/29 08:25:09;;;;;;;;;;;;;;;-1.91;69.52;98572.66;105506;1256;61157;-25
2023/03/29 08:27:42;;;;;;;2.60;1.70;;;;;;;-2.21;70.12;98598.61;105635;1257;61613;-26
2023/03/29 08:30:13;;;;;;;3.40;1.70;;;;;;;-2.08;70.31;98584.20;105652;1256;74329;-26
2023/03/29 08:32:45;;;;;;;2.00;1.40;;;;;;;-1.79;69.02;98592.14;105229;1258;75930;-26
2023/03/29 08:35:19;;;;;;;2.10;1.50;;;;;;;-1.43;68.39;98603.17;105463;1256;72892;-27
2023/03/29 08:38:11;;;;;;;1.30;1.20;;;;;;;-1.44;68.88;98589.75;105550;1257;61147;-26
2023/03/29 08:40:40;;;;;;;2.60;1.50;;;;;;;-1.42;68.66;98602.62;105587;1260;61620;-26
2023/03/29 08:43:23;;;;;;;2.50;1.60;;;;;;;-1.46;70.47;98611.98;105586;1257;74324;-26
2023/03/29 08:46:17;;;;;;;2.10;1.50;;;;;;;-1.98;72.32;98611.72;105497;1264;74705;-26
2023/03/29 08:48:49;;;;;;;2.00;1.60;;;;;;;-1.96;73.46;98608.42;105143;1258;74171;-26
2023/03/29 08:51:35;;;;;;;1.80;1.30;;;;;;;-1.90;73.81;98594.42;105410;1256;61476;-26
2023/03/29 08:54:07;;;;;;;2.20;1.40;;;;;;;-1.71;72.43;98608.50;105277;1257;61093;-25
2023/03/29 08:56:48;;;;;;;;;;;;;;;-1.56;72.29;98610.16;105272;1257;74372;-26
2023/03/29 08:59:27;;;;;;;2.40;1.30;;;;;;;-1.56;70.56;98620.19;105496;1257;75963;-26
2023/03/29 09:01:57;;;;;;;2.70;1.40;;;;;;;-1.62;71.51;98617.36;105192;1257;74002;-25
2023/03/29 09:04:34;;;;;;;1.80;1.30;;;;;;;-1.67;71.23;98628.59;105385;1256;61061;-25
2023/03/29 09:07:18;;;;;;;2.10;1.60;;;;;;;-1.78;71.30;98626.98;105558;1258;61791;-25
2023/03/29 09:09:47;;;;;;;2.50;1.50;;;;;;;-1.80;71.43;98628.27;105598;1257;75420;-25
2023/03/29 09:12:50;;;;;;;2.80;1.30;;;;;;;-1.93;70.25;98634.19;105653;1257;75912;-25
2023/03/29 09:15:27;;;;;;;1.80;1.50;;;;;;;-2.13;71.82;98641.19;105608;1255;74006;-25
2023/03/29 09:18:12;;;;;;;4.60;2.40;;;;;;;-2.07;72.03;98641.31;105316;1263;62801;-25
2023/03/29 09:21:10;;;;;;;1.80;1.20;;;;;;;-1.79;69.92;98635.38;105265;1264;61163;-26
2023/03/29 09:23:47;;;;;;;3.50;1.40;;;;;;;-1.58;70.54;98637.61;105266;1257;74280;-26
2023/03/29 09:26:30;;;;;;;2.10;1.60;;;;;;;-1.71;70.73;98635.91;105470;1259;76110;-26
2023/03/29 09:29:37;;;;;;;1.90;1.70;;;;;;;-1.82;71.79;98651.29;105355;1255;72884;-25
2023/03/29 09:32:21;;;;;;;1.70;1.50;;;;;;;-1.75;71.42;98650.70;105605;1256;61045;-25
2023/03/29 09:35:17;;;;;;;1.40;1.20;;;;;;;-1.82;71.22;98643.98;105556;1259;61537;-25
2023/03/29 09:37:47;;;;;;;1.50;1.30;;;;;;;-1.85;72.37;98656.85;105361;1259;74325;-25
2023/03/29 09:40:40;;;;;;;2.00;1.40;;;;;;;-1.82;71.96;98652.66;105539;1262;75716;-25
2023/03/29 09:43:16;;;;;;;1.70;1.20;;;;;;;-1.32;69.55;98653.84;105493;1257;74295;-24
2023/03/29 09:45:50;;;;;;;1.90;1.40;;;;;;;-1.13;68.99;98661.11;105495;1262;61280;-25
2023/03/29 09:48:18;;;;;;;3.30;1.60;;;;;;;-1.05;68.35;98653.48;105417;1259;61986;-26
2023/03/29 09:50:51;;;;;;;1.50;1.30;;;;;;;-1.70;67.75;98657.30;105254;1257;75659;-25
2023/03/29 09:53:20;;;;;;;2.10;1.30;;;;;;;-1.79;67.40;98648.61;105510;1257;75816;-25
2023/03/29 09:55:58;;;;;;;1.60;1.30;;;;;;;-1.76;67.98;98672.33;105428;1256;73992;-25
2023/03/29 09:58:45;;;;;;;2.60;1.50;;;;;;;-1.78;68.69;98669.19;105455;1260;61147;-26
2023/03/29 10:01:16;;;;;;;2.10;1.20;;;;;;;-1.80;68.41;98665.17;105350;1263;61598;-26
2023/03/29 10:03:51;;;;;;;1.70;1.40;;;;;;;-1.73;68.98;98672.91;105550;1260;74349;-26
2023/03/29 10:06:22;;;;;;;2.70;1.50;;;;;;;-1.79;69.04;98675.69;105343;1263;74977;-24
2023/03/29 10:08:56;;;;;;;4.20;1.40;;;;;;;-1.68;69.04;98674.94;105565;1257;72879;-27
2023/03/29 10:11:36;;;;;;;2.20;1.60;;;;;;;-1.71;69.24;98664.16;105586;1257;61063;-24
2023/03/29 10:14:32;;;;;;;1.90;1.30;;;;;;;-1.72;69.43;98674.75;105318;1256;61783;-24
2023/03/29 10:17:05;;;;;;;4.40;1.50;;;;;;;-1.74;69.26;98677.23;105501;1257;75012;-24
2023/03/29 10:19:34;;;;;;;1.30;1.00;;;;;;;-1.78;69.42;98676.67;105514;1257;76038;-26
2023/03/29 10:22:17;;;;;;;2.20;1.20;;;;;;;-1.33;68.47;98684.37;105276;1257;74656;-25
2023/03/29 10:24:50;;;;;;;1.70;1.40;;;;;;;-1.20;67.61;98678.08;105219;1256;61134;-25
2023/03/29 10:27:26;;;;;;;2.20;1.60;;;;;;;-1.54;68.07;98666.24;105406;1257;61587;-25
2023/03/29 10:29:59;;;;;;;2.00;1.40;;;;;;;-2.10;73.41;98688.86;105474;1257;75383;-25
2023/03/29 10:32:33;;;;;;;2.10;1.40;;;;;;;-2.08;74.76;98689.17;105639;1257;75846;-25
2023/03/29 10:35:09;;;;;;;1.90;1.60;;;;;;;-1.93;71.47;98682.67;105483;1257;74101;-26
2023/03/29 10:37:43;;;;;;;2.30;1.70;;;;;;;-1.84;69.81;98688.30;105596;1257;61132;-27
2023/03/29 10:40:26;;;;;;;1.50;1.40;;;;;;;-1.75;69.19;98675.86;105298;1255;61090;-25
2023/03/29 10:42:57;;;;;;;1.20;1.00;;;;;;;-1.62;68.26;98684.75;105585;1260;75356;-25
2023/03/29 10:45:30;;;;;;;2.00;1.30;;;;;;;-1.49;68.09;98682.58;105371;1257;75536;-25
2023/03/29 10:47:59;;;;;;;2.30;1.60;;;;;;;-1.38;68.62;98678.59;105578;1256;73217;-25
2023/03/29 10:50:36;;;;;;;2.20;1.50;;;;;;;-1.64;69.16;98679.89;105667;1255;61166;-25
2023/03/29 10:53:18;;;;;;;1.40;1.10;;;;;;;-1.47;68.81;98692.55;105513;1258;61841;-25
2023/03/29 10:55:53;;;;;;;2.10;1.30;;;;;;;-1.40;69.69;98686.15;105552;1257;75391;-25
2023/03/29 10:58:54;;;;;;;2.10;1.30;;;;;;;-1.15;68.79;98690.48;105664;1257;75831;-25
2023/03/29 11:01:28;;;;;;;1.90;1.40;;;;;;;-0.81;65.41;98685.55;105629;1261;74170;-26
2023/03/29 11:04:00;;;;;;;3.00;1.30;;;;;;;-0.89;65.03;98689.10;105585;1256;61164;-26
2023/03/29 11:07:25;;;;;;;1.80;1.30;;;;;;;-0.87;66.10;98691.41;105434;1256;61174;-26
2023/03/29 11:10:03;;;;;;;2.80;1.20;;;;;;;-0.88;66.04;98693.00;105471;1256;73611;-26
2023/03/29 11:12:57;;;;;;;1.80;1.60;;;;;;;-1.06;65.50;98684.67;105309;1264;74711;-26
2023/03/29 11:16:01;;;;;;;1.20;0.90;;;;;;;-1.22;66.61;98689.54;105587;1258;73140;-26
2023/03/29 11:19:08;;;;;;;2.70;1.20;;;;;;;-1.28;66.80;98679.91;105609;1256;61150;-24
2023/03/29 11:21:59;;;;;;;1.40;1.30;;;;;;;-1.43;67.98;98688.66;105145;1267;61659;-24
2023/03/29 11:25:09;;;;;;;2.50;1.60;;;;;;;-1.33;67.76;98695.42;105464;1256;75433;-24
2023/03/29 11:27:43;;;;;;;2.10;1.60;;;;;;;-1.20;66.86;98687.44;105634;1259;75916;-24
2023/03/29 11:30:55;;;;;;;1.80;1.30;;;;;;;-1.38;66.58;98674.17;105324;1256;74165;-26
2023/03/29 11:33:32;;;;;;;3.60;1.10;;;;;;;-1.37;66.52;98681.09;105479;1257;61105;-25
2023/03/29 11:36:11;;;;;;;2.60;1.40;;;;;;;-1.31;65.61;98688.70;105508;1263;61757;-25
2023/03/29 11:38:52;;;;;;;3.10;1.30;;;;;;;-1.45;65.54;98701.18;105613;1260;74686;-27
2023/03/29 11:41:25;;;;;;;1.50;1.30;;;;;;;-1.44;64.97;98696.52;105575;1257;75820;-25
2023/03/29 11:44:10;;;;;;;;;;;;;;;-1.37;64.82;98691.00;105275;1256;73382;-25
2023/03/29 11:46:46;;;;;;;2.00;1.30;;;;;;;-1.38;64.73;98704.81;105364;1257;61269;-25
2023/03/29 11:49:18;;;;;;;2.00;1.20;;;;;;;-1.44;65.62;98707.08;105477;1263;61891;-25
2023/03/29 11:51:56;;;;;;;1.30;1.10;;;;;;;-1.51;65.81;98700.38;105575;1256;73457;-25
2023/03/29 11:54:35;;;;;;;2.10;1.30;;;;;;;-1.53;66.54;98701.27;105467;1257;75566;-26
2023/03/29 11:57:28;;;;;;;2.10;1.30;;;;;;;-1.60;68.07;98711.09;105583;1257;74015;-26
2023/03/29 12:00:04;;;;;;;2.80;2.00;;;;;;;-1.74;69.41;98709.90;105496;1256;61134;-25
2023/03/29 12:02:45;;;;;;;3.40;1.30;;;;;;;-1.67;70.03;98713.05;105451;1257;61865;-27
2023/03/29 12:05:31;;;;;;;4.90;1.50;;;;;;;-1.22;68.02;98719.52;105281;1256;75220;-26
2023/03/29 12:08:15;;;;;;;2.10;1.30;;;;;;;-1.11;66.63;98716.21;105418;1257;75559;-27
2023/03/29 12:10:45;;;;;;;;;;;;;;;-1.06;66.34;98715.17;105601;1256;73850;-26
2023/03/29 12:13:14;;;;;;;3.80;1.10;;;;;;;-1.15;65.73;98712.96;105593;1256;61155;-26
2023/03/29 12:15:51;;;;;;;1.90;1.50;;;;;;;-1.23;65.74;98716.34;105622;1256;61897;-26
2023/03/29 12:18:32;;;;;;;2.10;1.40;;;;;;;-1.26;66.25;98720.55;105325;1257;75065;-26
2023/03/29 12:21:02;;;;;;;1.50;1.40;;;;;;;-1.32;65.91;98721.80;105561;1257;74960;-25
2023/03/29 12:23:33;;;;;;;1.80;1.40;;;;;;;-1.44;65.64;98729.73;105547;1256;73989;-25
2023/03/29 12:26:33;;;;;;;1.60;1.20;;;;;;;-1.70;66.14;98726.60;105622;1256;61626;-25
2023/03/29 12:29:25;;;;;;;1.60;1.40;;;;;;;-1.78;66.95;98728.25;105690;1259;62050;-26
2023/03/29 12:32:28;;;;;;;1.60;1.20;;;;;;;-1.87;68.68;98734.02;105616;1260;75405;-26
2023/03/29 12:35:29;;;;;;;2.40;1.50;;;;;;;-1.71;69.82;98718.65;105647;1259;75884;-26
2023/03/29 12:38:18;;;;;;;2.80;1.60;;;;;;;-1.47;67.87;98722.70;105480;1256;74282;-26
2023/03/29 12:41:20;;;;;;;2.10;1.30;;;;;;;-1.26;66.97;98732.14;105612;1257;61169;-26
2023/03/29 12:44:12;;;;;;;3.70;1.20;;;;;;;-1.36;66.29;98737.78;105440;1261;61675;-26
2023/03/29 12:46:53;;;;;;;2.00;1.20;;;;;;;-1.49;65.22;98736.70;105550;1257;76007;-26
2023/03/29 12:49:34;;;;;;;1.80;1.10;;;;;;;-1.53;65.52;98735.36;105336;1257;75547;-26
2023/03/29 12:52:14;;;;;;;4.20;1.10;;;;;;;-1.58;66.03;98746.92;105461;1257;73973;-26
2023/03/29 12:54:55;;;;;;;1.80;1.30;;;;;;;-1.44;66.11;98736.38;105315;1256;61614;-26
2023/03/29 12:57:40;;;;;;;1.70;1.40;;;;;;;-1.59;66.47;98739.16;105253;1257;61857;-26
2023/03/29 13:00:12;;;;;;;1.40;1.20;;;;;;;-1.59;67.15;98744.06;105510;1256;75309;-26
2023/03/29 13:02:44;;;;;;;2.20;1.40;;;;;;;-1.58;67.61;98745.40;105651;1260;73773;-26
2023/03/29 13:05:28;;;;;;;2.20;1.20;;;;;;;-1.43;68.04;98755.93;105631;1256;74501;-27
2023/03/29 13:07:56;;;;;;;;;;;;;;;-1.75;67.43;98733.56;105531;1256;61171;-26
2023/03/29 13:10:37;;;;;;;3.10;1.60;;;;;;;-1.76;68.53;98743.83;105689;1256;61383;-24
2023/03/29 13:13:22;;;;;;;1.60;1.30;;;;;;;-1.65;69.31;98752.80;105466;1256;75513;-26
2023/03/29 13:15:51;;;;;;;1.60;1.10;;;;;;;-1.25;66.54;98748.25;105322;1264;76293;-26
2023/03/29 13:19:02;;;;;;;1.30;0.80;;;;;;;-1.02;65.31;98751.16;105562;1260;74009;-26
2023/03/29 13:21:31;;;;;;;1.80;1.30;;;;;;;-0.70;65.32;98766.96;105598;1255;61138;-26
2023/03/29 13:24:30;;;;;;;2.10;1.20;;;;;;;-1.01;64.62;98759.99;105571;1261;61730;-26
2023/03/29 13:27:04;;;;;;;1.80;1.20;;;;;;;-1.09;64.67;98750.73;105262;1261;75453;-25
2023/03/29 13:29:52;;;;;;;2.40;1.30;;;;;;;-0.99;65.31;98765.85;105678;1257;75840;-25
2023/03/29 13:32:45;;;;;;;3.80;1.20;;;;;;;-1.09;64.70;98757.39;105625;1259;74123;-25
2023/03/29 13:35:20;;;;;;;1.80;1.40;;;;;;;-1.30;64.33;98767.54;105661;1256;61139;-25
2023/03/29 13:38:07;;;;;;;1.30;1.10;;;;;;;-1.31;64.61;98770.30;105580;1256;62185;-26
2023/03/29 13:40:40;;;;;;;1.80;1.20;;;;;;;-1.37;65.30;98767.48;105597;1257;75400;-26
2023/03/29 13:43:19;;;;;;;1.50;1.30;;;;;;;-1.26;64.94;98767.07;105508;1257;75009;-27
2023/03/29 13:45:57;;;;;;;1.40;1.00;;;;;;;-1.34;63.65;98761.91;105465;1264;71884;-26
2023/03/29 13:48:32;;;;;;;1.60;1.00;;;;;;;-1.32;63.52;98774.59;105634;1257;61052;-25
2023/03/29 13:51:06;;;;;;;1.20;1.00;;;;;;;-1.34;63.83;98774.34;105474;1255;61869;-25
2023/03/29 13:53:38;;;;;;;0.80;0.80;;;;;;;-1.33;64.07;98768.34;105551;1257;75376;-25
2023/03/29 13:56:10;;;;;;;3.30;1.20;;;;;;;-1.37;63.36;98757.24;105423;1257;75834;-25
2023/03/29 13:58:50;;;;;;;1.40;1.00;;;;;;;-1.33;63.37;98765.09;105291;1257;73298;-26
2023/03/29 14:01:31;;;;;;;1.90;1.10;;;;;;;-1.28;64.51;98778.69;105583;1256;61262;-26
2023/03/29 14:04:00;;;;;;;2.10;1.00;;;;;;;-1.23;64.10;98784.81;105558;1257;61955;-26
2023/03/29 14:06:31;;;;;;;1.80;1.00;;;;;;;-1.21;63.69;98782.04;105461;1256;72976;-26
2023/03/29 14:09:03;;;;;;;2.50;1.50;;;;;;;-1.30;62.99;98772.83;105345;1257;73930;-26
2023/03/29 14:11:33;;;;;;;1.30;1.00;;;;;;;-1.39;63.28;98769.76;105456;1257;73948;-26
2023/03/29 14:14:07;;;;;;;1.60;1.10;;;;;;;-1.30;63.57;98780.98;105609;1262;61410;-26
2023/03/29 14:16:37;;;;;;;;;;;;;;;-1.27;63.48;98781.07;105624;1256;61078;-26
2023/03/29 14:19:38;;;;;;;0.80;0.80;;;;;;;-1.34;62.91;98784.72;105629;1261;75419;-27
2023/03/29 14:22:09;;;;;;;1.10;0.90;;;;;;;-1.28;63.38;98794.54;105645;1261;75893;-26
2023/03/29 14:24:46;;;;;;;1.50;1.00;;;;;;;-1.30;63.22;98793.75;105522;1256;73155;-26
2023/03/29 14:27:15;;;;;;;1.80;1.20;;;;;;;-1.34;61.42;98785.56;105467;1257;61606;-26
2023/03/29 14:29:46;;;;;;;1.10;0.90;;;;;;;-1.31;61.32;98781.88;105682;1257;61160;-26
2023/03/29 14:32:16;;;;;;;1.40;1.30;;;;;;;-1.32;61.59;98793.35;105511;1262;75654;-26
2023/03/29 14:34:48;;;;;;;1.50;1.20;;;;;;;-1.39;60.92;98783.55;105467;1257;75583;-26
2023/03/29 14:37:22;;;;;;;2.20;1.20;;;;;;;-1.33;61.39;98798.66;105237;1256;73966;-26
2023/03/29 14:39:50;;;;;;;1.10;1.00;;;;;;;-1.28;61.19;98802.20;105369;1256;61168;-26
2023/03/29 14:42:23;;;;;;;2.30;1.20;;;;;;;-1.25;62.02;98805.50;105405;1261;61991;-26
2023/03/29 14:44:56;;;;;;;1.70;1.20;;;;;;;-1.28;61.75;98799.48;105151;1265;74230;-27
2023/03/29 14:47:27;;;;;;;1.60;0.90;;;;;;;-1.16;62.21;98812.52;105293;1256;74996;-28
2023/03/29 14:49:59;;;;;;;4.80;1.00;;;;;;;-1.20;61.73;98808.58;105327;1260;73928;-27
2023/03/29 14:52:30;;;;;;;2.60;1.20;;;;;;;-1.26;60.94;98803.31;105225;1257;61162;-27
2023/03/29 14:55:00;;;;;;;1.30;1.00;;;;;;;-1.18;61.61;98813.77;105599;1255;61642;-26
2023/03/29 14:57:34;;;;;;;2.70;1.00;;;;;;;-1.20;60.69;98808.73;105306;1257;75233;-27
2023/03/29 15:00:17;;;;;;;2.70;1.10;;;;;;;-1.18;60.46;98814.47;105306;1255;74984;-27
2023/03/29 15:02:49;;;;;;;2.70;1.30;;;;;;;-1.13;61.12;98816.33;105615;1256;73730;-27
2023/03/29 15:05:39;;;;;;;1.10;0.80;;;;;;;-1.15;60.36;98813.33;105418;1260;61120;-28
2023/03/29 15:08:32;;;;;;;2.60;1.10;;;;;;;-1.11;61.02;98830.90;105618;1256;61631;-27
2023/03/29 15:11:22;;;;;;;0.90;0.70;;;;;;;-1.07;61.16;98830.56;105654;1256;75507;-27
2023/03/29 15:13:53;;;;;;;1.00;0.90;;;;;;;-1.09;59.72;98823.33;105582;1262;75792;-28
2023/03/29 15:16:22;;;;;;;1.20;1.00;;;;;;;-1.03;59.91;98830.78;105369;1256;74306;-27
2023/03/29 15:18:51;;;;;;;1.50;0.90;;;;;;;-0.99;60.51;98830.98;105666;1257;61094;-27
2023/03/29 15:21:20;;;;;;;3.10;0.70;;;;;;;-0.93;61.01;98833.31;105676;1259;61109;-27
2023/03/29 15:23:55;;;;;;;1.30;0.90;;;;;;;-0.93;60.19;98825.81;105450;1257;75411;-28
2023/03/29 15:26:29;;;;;;;2.30;1.30;;;;;;;-1.00;59.96;98834.92;105436;1264;74163;-28
2023/03/29 15:29:13;;;;;;;0.80;0.80;;;;;;;-0.98;59.69;98835.52;105457;1264;74253;-28
2023/03/29 15:31:44;;;;;;;1.40;1.10;;;;;;;-1.02;58.54;98836.88;105302;1256;61306;-27
2023/03/29 15:34:32;;;;;;;2.80;1.40;;;;;;;-1.00;59.32;98841.40;105335;1256;61925;-28
2023/03/29 15:37:02;;;;;;;2.10;1.20;;;;;;;-1.02;58.49;98841.13;105431;1256;75408;-28
2023/03/29 15:39:33;;;;;;;1.40;1.00;;;;;;;-1.01;58.46;98847.58;105629;1259;75862;-27
2023/03/29 15:42:02;;;;;;;1.60;1.20;;;;;;;-0.96;57.65;98847.25;105611;1257;74197;-27
2023/03/29 15:44:32;;;;;;;2.40;1.30;;;;;;;-1.00;59.09;98856.07;105417;1257;61127;-29
2023/03/29 15:47:00;;;;;;;1.70;1.10;;;;;;;-0.93;58.36;98862.61;105308;1257;61846;-28
2023/03/29 15:49:29;;;;;;;0.70;0.70;;;;;;;-0.92;58.70;98863.79;105657;1259;74424;-27
2023/03/29 15:51:58;;;;;;;2.30;1.00;;;;;;;-0.94;57.47;98860.59;105475;1257;74579;-27
2023/03/29 15:54:31;;;;;;;1.30;0.90;;;;;;;-0.95;57.94;98860.30;105489;1259;74231;-27
2023/03/29 15:57:02;;;;;;;1.00;0.70;;;;;;;-0.92;58.42;98871.27;105518;1257;61072;-27
2023/03/29 15:59:32;;;;;;;1.30;1.00;;;;;;;-0.90;59.45;98874.77;105429;1256;61050;-27
2023/03/29 16:02:02;;;;;;;1.40;0.90;;;;;;;-0.93;59.47;98877.27;105649;1259;74324;-27
2023/03/29 16:04:31;;;;;;;1.90;0.80;;;;;;;-0.95;59.70;98877.50;105675;1257;75833;-27
2023/03/29 16:07:01;;;;;;;1.30;0.90;;;;;;;-0.93;59.43;98878.48;105591;1257;73887;-27
2023/03/29 16:09:30;;;;;;;1.10;1.00;;;;;;;-0.98;59.51;98880.68;105697;1259;61156;-27
2023/03/29 16:12:01;;;;;;;1.30;0.90;;;;;;;-0.98;59.47;98884.11;105621;1259;61893;-27
2023/03/29 16:14:32;;;;;;;3.50;1.00;;;;;;;-0.98;59.79;98893.33;105638;1256;74304;-27
2023/03/29 16:17:01;;;;;;;3.60;1.10;;;;;;;-0.96;61.36;98895.30;105654;1257;75942;-27
2023/03/29 16:19:31;;;;;;;1.00;0.80;;;;;;;-1.01;61.59;98893.77;105626;1257;74127;-27
2023/03/29 16:22:01;;;;;;;1.50;1.00;;;;;;;-1.06;61.56;98895.09;105669;1256;60997;-27
2023/03/29 16:24:30;;;;;;;2.60;1.40;;;;;;;-1.06;61.80;98904.66;105439;1255;61065;-27
2023/03/29 16:27:00;;;;;;;3.60;1.20;;;;;;;-1.11;61.92;98904.14;105439;1257;74811;-27
2023/03/29 16:29:29;;;;;;;1.10;1.00;;;;;;;-1.09;61.97;98906.95;105559;1256;75755;-27
2023/03/29 16:31:58;;;;;;;1.20;1.10;;;;;;;-1.11;62.57;98907.20;105199;1256;74474;-27
2023/03/29 16:34:28;;;;;;;1.20;0.80;;;;;;;-1.15;63.24;98911.78;105534;1256;61173;-27
2023/03/29 16:36:57;;;;;;;1.40;1.10;;;;;;;-1.16;62.47;98908.75;105419;1259;61059;-27